M I D A S
Marine Information and Data Acquisition System
Tripno 629 of the Zeeleeuw from 2004-01-05 07:40:16 to 2004-01-05 13:56:09
Back to CruiseResearch ActivitiesStationsMapUnderway DataData graphs

EquipmentUnitsComment
TimeDGPSUTC
LatitudeDGPSDM.mWGS84
LongitudeDGPSDM.mWGS84
HeadingGyrodeg 
SOGDGPSknotsSpeed over ground
COGDGPSdegCourse over ground
DepthEcho soundermeters200 kHz
Missing or incorrect values are displayed as -999
Navigation data collected by the RV Zeeleeuw from 2004-01-05 07:40:16 to 2004-01-05 13:56:09
                                                                                    Next 1000 lines
Time Latitude Longitude Heading SOG COG Depth
2004-01-05 07:40:24 51°13.592 2°56.109 119.2 0.1 219 7.6
2004-01-05 07:40:30 51°13.591 2°56.108 118.6   310 7.6
2004-01-05 07:40:34 51°13.591 2°56.108 118.3 0.1 302 7.6
2004-01-05 07:40:40 51°13.592 2°56.107 118.2 0.3 303 7.5
2004-01-05 07:40:43 51°13.592 2°56.106 118.2 0.7 296 7.5
2004-01-05 07:40:50 51°13.593 2°56.103 118.3 1.1 298 5.6
2004-01-05 07:40:54 51°13.594 2°56.1 118.5 1.4 298 7.5
2004-01-05 07:40:59 51°13.595 2°56.097 118.6 1.6 299 -999
2004-01-05 07:41:06 51°13.597 2°56.091 118.7 1.9 297 -999
2004-01-05 07:41:10 51°13.598 2°56.088 118.9 2.1 296 -999
2004-01-05 07:41:14 51°13.599 2°56.084 118.9 2.3 296 -999
2004-01-05 07:41:20 51°13.601 2°56.078 119 2.5 296 -999
2004-01-05 07:41:24 51°13.602 2°56.073 119.1 2.7 296 -999
2004-01-05 07:41:30 51°13.605 2°56.067 119.2 2.9 297 -999
2004-01-05 07:41:35 51°13.607 2°56.06 119.1 3 297 -999
2004-01-05 07:41:38 51°13.608 2°56.057 119 3.2 296 -999
2004-01-05 07:41:44 51°13.61 2°56.049 118.9 3.3 296 -999
2004-01-05 07:41:50 51°13.613 2°56.04 118.7 3.4 295 -999
2004-01-05 07:41:54 51°13.614 2°56.035 118.7 3.4 294 -999
2004-01-05 07:42:00 51°13.617 2°56.026 118.7 3.5 294 -999
2004-01-05 07:42:04 51°13.618 2°56.021 118.7 3.6 294 -999
2004-01-05 07:42:10 51°13.621 2°56.012 118.7 3.7 295 -999
2004-01-05 07:42:14 51°13.623 2°56.006 118.9 3.7 295 -999
2004-01-05 07:42:20 51°13.626 2°55.998 119 3.8 295 -999
2004-01-05 07:42:24 51°13.628 2°55.992 119.3 3.8 295 -999
2004-01-05 07:42:30 51°13.631 2°55.982 119.7 3.9 296 -999
2004-01-05 07:42:34 51°13.632 2°55.976 120.1 3.9 296 -999
2004-01-05 07:42:40 51°13.635 2°55.966 120.4 4 296 -999
2004-01-05 07:42:42 51°13.636 2°55.963 120.7 4.1 296 -999
2004-01-05 07:42:50 51°13.641 2°55.95 120.9 4.1 296 -999
2004-01-05 07:42:54 51°13.643 2°55.944 121 4.2 296 -999
2004-01-05 07:42:58 51°13.645 2°55.937 120.8 4.2 297 -999
2004-01-05 07:43:03 51°13.647 2°55.929 120.7 4.3 297 -999
2004-01-05 07:43:10 51°13.651 2°55.916 120.6 4.4 296 -999
2004-01-05 07:43:14 51°13.653 2°55.909 120.5 4.4 296 -999
2004-01-05 07:43:18 51°13.655 2°55.902 120.5 4.4 296 -999
2004-01-05 07:43:23 51°13.658 2°55.893 120.5 4.5 296 -999
2004-01-05 07:43:30 51°13.662 2°55.881 120.4 4.4 296 -999
2004-01-05 07:43:35 51°13.664 2°55.872 120.2 4.4 296 -999
2004-01-05 07:43:38 51°13.666 2°55.867 119.9 4.3 296 -999
2004-01-05 07:43:45 51°13.669 2°55.855 119.7 4.3 296 -999
2004-01-05 07:43:50 51°13.672 2°55.846 119.2 4.4 295 -999
2004-01-05 07:43:54 51°13.674 2°55.839 118.7 4.4 295 -999
2004-01-05 07:44:00 51°13.677 2°55.829 118.2 4.4 295 -999
2004-01-05 07:44:04 51°13.679 2°55.821 117.5 4.4 295 -999
2004-01-05 07:44:10 51°13.682 2°55.811 116.7 4.3 294 -999
2004-01-05 07:44:14 51°13.684 2°55.805 115.8 4.2 294 -999
2004-01-05 07:44:20 51°13.686 2°55.795 114.8 4.1 293 -999
2004-01-05 07:44:24 51°13.688 2°55.788 113.8 4 293 -999
2004-01-05 07:44:30 51°13.69 2°55.779 113.1 3.8 292 -999
2004-01-05 07:44:34 51°13.691 2°55.774 112.3 3.5 292 -999
2004-01-05 07:44:40 51°13.693 2°55.768 110.9 2.8 291 -999
2004-01-05 07:44:44 51°13.694 2°55.765 108.8 2.2 293 14
2004-01-05 07:44:50 51°13.694 2°55.763 105.2 1.2 297 14
2004-01-05 07:44:54 51°13.695 2°55.763 101.6 0.7 307 14.1
2004-01-05 07:44:59 51°13.695 2°55.763 96.8 0.5 335 14.3
2004-01-05 07:45:04 51°13.696 2°55.765 92.1 0.6 44 14.4
2004-01-05 07:45:10 51°13.697 2°55.768 85.9 1.2 58 14.6
2004-01-05 07:45:14 51°13.698 2°55.771 78.6 1.6 59 14.1
2004-01-05 07:45:20 51°13.699 2°55.776 70.6 1.9 57 13.7
2004-01-05 07:45:23 51°13.701 2°55.778 62.5 2.1 50 13.4
2004-01-05 07:45:30 51°13.704 2°55.781 57.2 1.9 45 13.3
2004-01-05 07:45:34 51°13.704 2°55.782 53.6 1.4 38 13
2004-01-05 07:45:39 51°13.705 2°55.783 49.4 1 29 13.1
2004-01-05 07:45:44 51°13.705 2°55.783 45.9 0.4 359 13.1
2004-01-05 07:45:50 51°13.704 2°55.781 43.4 0.4 253 13
2004-01-05 07:45:54 51°13.704 2°55.78 41.4 0.7 233 13.1
2004-01-05 07:46:00 51°13.702 2°55.777 40.1 1 228 13.3
2004-01-05 07:46:03 51°13.701 2°55.775 38.5 1.5 222 -999
2004-01-05 07:46:10 51°13.698 2°55.771 36.8 1.9 220 -999
2004-01-05 07:46:15 51°13.696 2°55.768 35 2.1 218 -999
2004-01-05 07:46:20 51°13.694 2°55.766 33.4 2.2 217 -999
2004-01-05 07:46:25 51°13.692 2°55.763 32.3 2 217 -999
2004-01-05 07:46:30 51°13.691 2°55.762 30.9 1.4 221 -999
2004-01-05 07:46:34 51°13.69 2°55.762 27.8 0.7 233 -999
2004-01-05 07:46:38 51°13.691 2°55.761 22.1 0.6 332 -999
2004-01-05 07:46:44 51°13.694 2°55.761 15.1 1.1 352 -999
2004-01-05 07:46:50 51°13.697 2°55.76 7.1 1.8 354 -999
2004-01-05 07:46:54 51°13.7 2°55.76 358.9 2.2 351 -999
2004-01-05 07:47:00 51°13.704 2°55.758 352.4 2.6 346 -999
2004-01-05 07:47:04 51°13.707 2°55.756 347.6 2.7 342 -999
2004-01-05 07:47:10 51°13.712 2°55.753 343.3 2.9 338 -999
2004-01-05 07:47:14 51°13.715 2°55.75 340.2 3 334 13.1
2004-01-05 07:47:18 51°13.718 2°55.747 336.6 3.1 331 12.3
2004-01-05 07:47:22 51°13.721 2°55.744 334.1 3.3 328 11.2
2004-01-05 07:47:30 51°13.728 2°55.737 332 3.7 326 11.2
2004-01-05 07:47:35 51°13.733 2°55.731 331 4 326 10.5
2004-01-05 07:47:40 51°13.738 2°55.725 330.8 4.3 325 10.4
2004-01-05 07:47:43 51°13.742 2°55.722 330.9 4.7 326 10.4
2004-01-05 07:47:50 51°13.75 2°55.713 331.4 5 326 10.2
2004-01-05 07:47:54 51°13.755 2°55.709 331.8 5.2 326 10.2
2004-01-05 07:48:00 51°13.762 2°55.7 331.8 5.4 326 10.3
2004-01-05 07:48:03 51°13.766 2°55.696 331.9 5.6 327 10.5
2004-01-05 07:48:10 51°13.776 2°55.687 332.4 5.8 327 10.4
2004-01-05 07:48:14 51°13.781 2°55.681 332.7 6 328 10.4
2004-01-05 07:48:20 51°13.789 2°55.672 333.1 6.1 328 10.4
2004-01-05 07:48:23 51°13.794 2°55.668 333.7 6.3 329 10.5
2004-01-05 07:48:30 51°13.805 2°55.658 334.5 6.5 330 10.8
2004-01-05 07:48:34 51°13.812 2°55.652 335.3 6.6 331 10.8
2004-01-05 07:48:40 51°13.821 2°55.643 336.3 6.7 331 10.9
2004-01-05 07:48:43 51°13.827 2°55.639 337.4 6.9 332 10.7
2004-01-05 07:48:50 51°13.839 2°55.629 338.4 7 334 10.4
2004-01-05 07:48:54 51°13.846 2°55.623 338.8 7.1 334 10.2
2004-01-05 07:48:59 51°13.855 2°55.617 338.8 7.1 334 10
2004-01-05 07:49:03 51°13.862 2°55.611 338.8 7.2 334 10
2004-01-05 07:49:10 51°13.874 2°55.601 338.8 7.3 334 10.1
2004-01-05 07:49:14 51°13.881 2°55.595 339 7.4 334 10.4
2004-01-05 07:49:20 51°13.892 2°55.587 339.4 7.4 334 10.3
2004-01-05 07:49:23 51°13.898 2°55.582 339.6 7.5 334 10.3
2004-01-05 07:49:30 51°13.911 2°55.572 339.8 7.6 334 10.3
2004-01-05 07:49:34 51°13.919 2°55.566 339.7 7.6 335 10.2
2004-01-05 07:49:40 51°13.93 2°55.558 339.7 7.6 335 10.2
2004-01-05 07:49:43 51°13.937 2°55.554 340.3 7.6 335 10.2
2004-01-05 07:49:50 51°13.951 2°55.545 341.2 7.7 336 10.3
2004-01-05 07:49:54 51°13.959 2°55.539 341.8 7.7 337 10.2
2004-01-05 07:50:00 51°13.971 2°55.531 341.8 7.7 337 10.2
2004-01-05 07:50:03 51°13.977 2°55.527 341.7 7.8 337 10.3
2004-01-05 07:50:10 51°13.991 2°55.517 341.2 7.8 337 10
2004-01-05 07:50:14 51°13.998 2°55.511 340.8 7.8 337 10
2004-01-05 07:50:20 51°14.01 2°55.502 340.2 7.8 336 9.8
2004-01-05 07:50:23 51°14.016 2°55.497 340.2 7.8 336 9.8
2004-01-05 07:50:30 51°14.029 2°55.487 340.6 7.8 336 9.7
2004-01-05 07:50:34 51°14.037 2°55.482 341 7.8 336 9.6
2004-01-05 07:50:40 51°14.05 2°55.474 341 7.8 336 9.6
2004-01-05 07:50:43 51°14.056 2°55.47 341 7.8 335 9.5
2004-01-05 07:50:50 51°14.07 2°55.459 340.8 7.8 335 9.5
2004-01-05 07:50:54 51°14.077 2°55.453 339.9 7.8 334 9.4
2004-01-05 07:51:00 51°14.089 2°55.444 339 7.8 334 9.4
2004-01-05 07:51:03 51°14.095 2°55.44 338.9 7.8 334 9.4
2004-01-05 07:51:10 51°14.108 2°55.429 339 7.8 334 9.4
2004-01-05 07:51:14 51°14.116 2°55.423 339.7 7.9 334 9.6
2004-01-05 07:51:20 51°14.129 2°55.414 340 8.1 335 9.4
2004-01-05 07:51:23 51°14.136 2°55.409 340.1 8.4 335 10.2
2004-01-05 07:51:30 51°14.151 2°55.397 339.6 8.8 334 9.7
2004-01-05 07:51:34 51°14.16 2°55.389 338.8 8.9 333 10.2
2004-01-05 07:51:38 51°14.169 2°55.382 337.9 9.1 332 10.3
2004-01-05 07:51:44 51°14.182 2°55.37 336.9 9.2 331 10.2
2004-01-05 07:51:50 51°14.196 2°55.356 335.9 9.4 329 10.2
2004-01-05 07:51:55 51°14.207 2°55.345 334.6 9.5 328 10.2
2004-01-05 07:52:00 51°14.218 2°55.332 332.3 9.6 327 10.2
2004-01-05 07:52:04 51°14.226 2°55.322 329.8 9.7 324 10.2
2004-01-05 07:52:10 51°14.239 2°55.306 328.5 9.7 322 10.3
2004-01-05 07:52:14 51°14.248 2°55.295 327.3 9.8 321 10.3
2004-01-05 07:52:20 51°14.26 2°55.278 325.2 9.8 320 10.2
2004-01-05 07:52:25 51°14.27 2°55.262 323 9.8 318 10.3
2004-01-05 07:52:30 51°14.279 2°55.246 320.2 9.9 314 10.3
2004-01-05 07:52:34 51°14.286 2°55.233 318.2 9.9 312 10.4
2004-01-05 07:52:39 51°14.295 2°55.216 317 10 311 10.3
2004-01-05 07:52:44 51°14.304 2°55.199 315.7 10.1 309 10.4
2004-01-05 07:52:50 51°14.314 2°55.177 313.6 10.2 308 10.4
2004-01-05 07:52:54 51°14.321 2°55.161 312 10.5 306 10.4
2004-01-05 07:52:59 51°14.329 2°55.142 310.6 10.6 305 10.4
2004-01-05 07:53:04 51°14.338 2°55.122 309.7 10.7 304 10.4
2004-01-05 07:53:10 51°14.348 2°55.098 309.3 10.8 303 10.4
2004-01-05 07:53:14 51°14.354 2°55.081 308.4 11 302 10.5
2004-01-05 07:53:19 51°14.361 2°55.06 307.2 11.1 301 10.6
2004-01-05 07:53:24 51°14.368 2°55.037 305.5 11.4 299 10.7
2004-01-05 07:53:30 51°14.376 2°55.009 303.3 11.7 296 10.7
2004-01-05 07:53:34 51°14.382 2°54.99 302 11.8 295 10.8
2004-01-05 07:53:40 51°14.389 2°54.96 299.8 11.9 293 10.8
2004-01-05 07:53:43 51°14.392 2°54.945 295.5 11.9 289 10.7
2004-01-05 07:53:50 51°14.397 2°54.909 291 12 283 10.7
2004-01-05 07:53:54 51°14.399 2°54.887 286.7 12.1 280 10.7
2004-01-05 07:54:00 51°14.4 2°54.855 283.7 12.2 277 10.7
2004-01-05 07:54:03 51°14.4 2°54.838 280.1 12.4 274 10.6
2004-01-05 07:54:10 51°14.4 2°54.799 276.7 12.5 270 10.9
2004-01-05 07:54:14 51°14.399 2°54.777 274.3 12.6 268 10.7
2004-01-05 07:54:20 51°14.398 2°54.744 271.8 12.6 267 10.7
2004-01-05 07:54:23 51°14.397 2°54.727 270.7 12.7 266 10.7
2004-01-05 07:54:30 51°14.394 2°54.687 269.5 12.8 264 10.7
2004-01-05 07:54:34 51°14.393 2°54.665 268.3 12.8 263 10.7
2004-01-05 07:54:38 51°14.39 2°54.643 266 12.8 261 10.7
2004-01-05 07:54:44 51°14.385 2°54.61 264.1 12.9 259 10.7
2004-01-05 07:54:50 51°14.378 2°54.577 261.2 12.9 255 10.4
2004-01-05 07:54:54 51°14.373 2°54.555 258.1 12.8 253 10.1
2004-01-05 07:55:00 51°14.364 2°54.524 255 12.8 249 9.8
2004-01-05 07:55:05 51°14.357 2°54.499 251.3 12.8 247 9.8
2004-01-05 07:55:10 51°14.348 2°54.474 247.9 12.7 243 9.6
2004-01-05 07:55:14 51°14.341 2°54.454 245.4 12.8 241 9.7
2004-01-05 07:55:20 51°14.331 2°54.424 244.5 12.8 241 9.6
2004-01-05 07:55:25 51°14.323 2°54.399 244.8 12.8 241 9.5
2004-01-05 07:55:30 51°14.316 2°54.373 245.7 12.8 243 9.5
2004-01-05 07:55:35 51°14.307 2°54.348 246.2 12.9 242 9.5
2004-01-05 07:55:40 51°14.299 2°54.322 246.2 12.9 243 9.4
2004-01-05 07:55:42 51°14.295 2°54.312 246 12.9 241 9.4
2004-01-05 07:55:50 51°14.282 2°54.272 245 12.9 242 9.3
2004-01-05 07:55:54 51°14.274 2°54.253 244.8 12.9 240 9.4
2004-01-05 07:55:58 51°14.268 2°54.232 244.9 12.9 242 9.4
2004-01-05 07:56:03 51°14.258 2°54.207 244.2 12.9 240 9.3
2004-01-05 07:56:10 51°14.246 2°54.172 244.1 13 240 9.3
2004-01-05 07:56:14 51°14.24 2°54.152 244.7 12.9 241 9.4
2004-01-05 07:56:18 51°14.232 2°54.132 244.5 13 241 9.3
2004-01-05 07:56:24 51°14.222 2°54.102 244.5 13 241 9.3
2004-01-05 07:56:30 51°14.211 2°54.072 245.2 13 240 9.3
2004-01-05 07:56:34 51°14.205 2°54.051 244.5 13 242 9.3
2004-01-05 07:56:40 51°14.194 2°54.022 245.1 13.1 241 9.2
2004-01-05 07:56:43 51°14.189 2°54.006 245 13 242 9.3
2004-01-05 07:56:50 51°14.176 2°53.971 245.3 13 241 9.2
2004-01-05 07:56:54 51°14.17 2°53.95 245.1 13 242 9.3
2004-01-05 07:57:00 51°14.16 2°53.92 245.8 13 242 9.3
2004-01-05 07:57:03 51°14.154 2°53.905 245.3 13 242 9.4
2004-01-05 07:57:10 51°14.142 2°53.87 245.5 13 241 9.2
2004-01-05 07:57:14 51°14.136 2°53.849 244.9 13 242 9.2
2004-01-05 07:57:20 51°14.125 2°53.82 245.5 13 241 9.2
2004-01-05 07:57:23 51°14.12 2°53.804 245.1 13 242 9.3
2004-01-05 07:57:30 51°14.108 2°53.769 245.4 13 241 9.3
2004-01-05 07:57:34 51°14.102 2°53.749 245.7 13 242 9.3
2004-01-05 07:57:40 51°14.091 2°53.718 245.4 13 241 9.4
2004-01-05 07:57:43 51°14.086 2°53.703 245.9 13 242 9.4
2004-01-05 07:57:50 51°14.074 2°53.667 245.3 13.1 242 9.4
2004-01-05 07:57:54 51°14.067 2°53.647 245.9 13.1 241 9.4
2004-01-05 07:58:00 51°14.057 2°53.617 245.3 13 241 9.4
2004-01-05 07:58:03 51°14.052 2°53.601 245.9 13 242 9.4
2004-01-05 07:58:10 51°14.04 2°53.566 245.9 13 242 9.4
2004-01-05 07:58:14 51°14.032 2°53.546 246.4 13 242 9.6
2004-01-05 07:58:20 51°14.023 2°53.515 246.2 13 242 9.5
2004-01-05 07:58:23 51°14.017 2°53.5 245.9 13.1 242 9.5
2004-01-05 07:58:30 51°14.006 2°53.464 246 13.1 242 9.6
2004-01-05 07:58:34 51°13.998 2°53.444 246 13.1 242 9.6
2004-01-05 07:58:39 51°13.991 2°53.418 246.2 13.1 242 9.6
2004-01-05 07:58:43 51°13.983 2°53.398 246.3 13.1 242 9.7
2004-01-05 07:58:50 51°13.972 2°53.361 245.8 13.1 242 9.6
2004-01-05 07:58:54 51°13.964 2°53.341 245.7 13.2 241 9.6
2004-01-05 07:59:00 51°13.954 2°53.31 245.3 13.2 242 9.7
2004-01-05 07:59:03 51°13.949 2°53.295 246.1 13.1 242 9.7
2004-01-05 07:59:10 51°13.937 2°53.259 245.3 13.1 242 9.8
2004-01-05 07:59:14 51°13.93 2°53.238 246 13.1 242 9.7
2004-01-05 07:59:19 51°13.922 2°53.213 246 13.2 242 9.8
2004-01-05 07:59:23 51°13.914 2°53.193 246.2 13.2 242 9.8
2004-01-05 07:59:30 51°13.902 2°53.157 245.7 13.2 242 9.8
2004-01-05 07:59:35 51°13.893 2°53.131 245.9 13.3 242 9.9
2004-01-05 07:59:38 51°13.888 2°53.115 245.8 13.4 242 9.9
2004-01-05 07:59:45 51°13.875 2°53.079 246 13.5 242 9.9
2004-01-05 07:59:50 51°13.867 2°53.052 245.9 13.5 242 10
2004-01-05 07:59:54 51°13.859 2°53.032 245.9 13.6 242 9.9
2004-01-05 07:59:59 51°13.851 2°53.004 246.7 13.7 243 10.1
2004-01-05 08:00:04 51°13.841 2°52.978 246.3 13.7 242 10
2004-01-05 08:00:10 51°13.831 2°52.945 245.8 13.9 243 10
2004-01-05 08:00:15 51°13.821 2°52.918 246.8 13.9 242 9.9
2004-01-05 08:00:18 51°13.816 2°52.902 244.9 14 241 10.1
2004-01-05 08:00:24 51°13.806 2°52.868 247.4 14 243 10.1
2004-01-05 08:00:30 51°13.795 2°52.835 245.2 14 242 10.1
2004-01-05 08:00:34 51°13.787 2°52.814 246.7 14 242 10.2
2004-01-05 08:00:40 51°13.776 2°52.781 245.8 14 241 10.2
2004-01-05 08:00:43 51°13.771 2°52.765 245.9 14 242 10.3
2004-01-05 08:00:50 51°13.758 2°52.726 246.7 14 242 10.3
2004-01-05 08:00:55 51°13.749 2°52.699 246.6 14.1 242 10.2
2004-01-05 08:00:59 51°13.741 2°52.677 246 14.1 242 10.3
2004-01-05 08:01:04 51°13.732 2°52.649 246.8 14.1 242 10.3
2004-01-05 08:01:10 51°13.721 2°52.616 245.9 14.1 242 10.3
2004-01-05 08:01:14 51°13.714 2°52.594 246 14.2 242 10.3
2004-01-05 08:01:18 51°13.707 2°52.572 246.8 14.1 242 10.4
2004-01-05 08:01:23 51°13.698 2°52.544 246.4 14.1 242 10.4
2004-01-05 08:01:30 51°13.685 2°52.506 246 14.1 242 10.4
2004-01-05 08:01:34 51°13.677 2°52.484 246.7 14.1 242 10.3
2004-01-05 08:01:40 51°13.666 2°52.451 245.3 14.1 241 10.3
2004-01-05 08:01:43 51°13.661 2°52.434 246.8 14 243 10.4
2004-01-05 08:01:50 51°13.647 2°52.396 244.8 14.1 241 10.5
2004-01-05 08:01:54 51°13.64 2°52.374 246.1 14.1 242 10.5
2004-01-05 08:01:59 51°13.63 2°52.347 245.3 14.1 240 10.6
2004-01-05 08:02:03 51°13.623 2°52.324 245.6 14.1 242 10.7
2004-01-05 08:02:10 51°13.609 2°52.286 245.3 14.2 241 10.7
2004-01-05 08:02:14 51°13.602 2°52.264 245.5 14.3 242 10.8
2004-01-05 08:02:19 51°13.592 2°52.236 246.3 14.2 241 10.8
2004-01-05 08:02:23 51°13.586 2°52.214 246 14.2 242 10.7
2004-01-05 08:02:30 51°13.572 2°52.176 246.5 14.2 242 10.7
2004-01-05 08:02:34 51°13.565 2°52.154 246 14.1 242 10.7
2004-01-05 08:02:40 51°13.554 2°52.12 245.9 14.2 242 10.7
2004-01-05 08:02:43 51°13.548 2°52.104 246.4 14.2 242 10.7
2004-01-05 08:02:49 51°13.538 2°52.07 246.7 14.2 243 10.7
2004-01-05 08:02:54 51°13.528 2°52.043 246.1 14.2 242 10.7
2004-01-05 08:02:58 51°13.521 2°52.021 246.2 14.2 242 10.7
2004-01-05 08:03:03 51°13.512 2°51.993 246 14.2 242 10.8
2004-01-05 08:03:10 51°13.499 2°51.954 246.8 14.2 243 10.8
2004-01-05 08:03:14 51°13.492 2°51.932 246.8 14.2 243 10.8
2004-01-05 08:03:18 51°13.484 2°51.91 247.1 14.2 243 10.8
2004-01-05 08:03:23 51°13.475 2°51.882 246.6 14.1 242 10.9
2004-01-05 08:03:29 51°13.464 2°51.849 245.3 14.1 242 10.8
2004-01-05 08:03:34 51°13.455 2°51.822 246.4 14.1 242 10.8
2004-01-05 08:03:38 51°13.447 2°51.8 245.3 14.2 241 10.7
2004-01-05 08:03:45 51°13.434 2°51.761 246.2 14.1 242 10.8
2004-01-05 08:03:50 51°13.425 2°51.733 245.4 14.1 242 10.9
2004-01-05 08:03:55 51°13.416 2°51.706 246.4 14.1 243 10.9
2004-01-05 08:03:59 51°13.408 2°51.684 245.8 14.1 241 10.8
2004-01-05 08:04:03 51°13.401 2°51.662 246.1 14.1 242 10.9
2004-01-05 08:04:10 51°13.388 2°51.624 246 14.1 242 10.9
2004-01-05 08:04:14 51°13.381 2°51.601 245.8 14.2 243 10.8
2004-01-05 08:04:20 51°13.37 2°51.568 247.1 14.1 242 10.7
2004-01-05 08:04:25 51°13.361 2°51.54 245.4 14.1 242 10.8
2004-01-05 08:04:30 51°13.352 2°51.513 246.9 14.1 243 10.9
2004-01-05 08:04:34 51°13.344 2°51.491 245.6 14.1 242 10.7
2004-01-05 08:04:40 51°13.333 2°51.458 246.5 14.2 243 10.9
2004-01-05 08:04:43 51°13.327 2°51.441 246.2 14.1 242 10.8
2004-01-05 08:04:50 51°13.315 2°51.402 245.6 14.2 242 10.9
2004-01-05 08:04:54 51°13.308 2°51.381 246.8 14.1 242 11
2004-01-05 08:05:00 51°13.296 2°51.348 246.2 14.1 242 10.8
2004-01-05 08:05:03 51°13.291 2°51.331 246.2 14.1 242 10.9
2004-01-05 08:05:10 51°13.278 2°51.293 246.6 14.1 243 10.8
2004-01-05 08:05:14 51°13.271 2°51.271 246.1 14.1 242 10.9
2004-01-05 08:05:19 51°13.261 2°51.243 246 14.2 242 10.8
2004-01-05 08:05:25 51°13.251 2°51.21 246.8 14.2 243 10.9
2004-01-05 08:05:30 51°13.242 2°51.183 246.6 14.1 242 10.9
2004-01-05 08:05:34 51°13.234 2°51.161 246.2 14 242 10.9
2004-01-05 08:05:38 51°13.227 2°51.139 246.8 14 242 11
2004-01-05 08:05:43 51°13.218 2°51.111 246.2 14.1 242 11
2004-01-05 08:05:50 51°13.205 2°51.072 246.9 14.2 242 11.1
2004-01-05 08:05:55 51°13.196 2°51.045 247 14.1 242 11
2004-01-05 08:05:58 51°13.191 2°51.029 246.2 14.1 242 11
2004-01-05 08:06:02 51°13.184 2°51.006 246.5 14.1 242 11
2004-01-05 08:06:10 51°13.169 2°50.963 246 14.1 242 11.1
2004-01-05 08:06:14 51°13.162 2°50.941 246 14.1 242 11.1
2004-01-05 08:06:19 51°13.153 2°50.913 247 14.1 243 11.2
2004-01-05 08:06:23 51°13.145 2°50.891 246.3 14.1 242 11.1
2004-01-05 08:06:30 51°13.133 2°50.853 246.7 14 243 11.2
2004-01-05 08:06:34 51°13.125 2°50.831 246.5 14 242 11.2
2004-01-05 08:06:40 51°13.114 2°50.798 245.9 14.1 242 11.1
2004-01-05 08:06:43 51°13.109 2°50.781 246 14.1 242 11.2
2004-01-05 08:06:50 51°13.096 2°50.743 246.7 14.1 243 11.2
2004-01-05 08:06:54 51°13.089 2°50.721 245.8 14.1 242 11.3
2004-01-05 08:07:00 51°13.077 2°50.689 246.3 14.1 242 11.2
2004-01-05 08:07:05 51°13.068 2°50.661 245.4 14.1 242 11.3
2004-01-05 08:07:10 51°13.059 2°50.633 246.1 14.1 242 11.3
2004-01-05 08:07:15 51°13.05 2°50.605 246 14.1 243 11.2
2004-01-05 08:07:19 51°13.043 2°50.583 246.7 14.1 242 11.3
2004-01-05 08:07:25 51°13.032 2°50.55 246.5 14.1 242 11.3
2004-01-05 08:07:30 51°13.022 2°50.523 246 14.1 242 11.4
2004-01-05 08:07:34 51°13.015 2°50.501 246.3 14.1 242 11.3
2004-01-05 08:07:40 51°13.004 2°50.467 246.3 14.1 242 11.3
2004-01-05 08:07:45 51°12.995 2°50.44 246.5 14.1 242 11.4
2004-01-05 08:07:50 51°12.987 2°50.412 246.6 14.1 243 11.4
2004-01-05 08:07:55 51°12.978 2°50.384 247.1 14.1 243 11.4
2004-01-05 08:08:00 51°12.969 2°50.356 246.6 14.1 243 11.4
2004-01-05 08:08:04 51°12.961 2°50.334 246.3 14.1 243 11.3
2004-01-05 08:08:10 51°12.951 2°50.301 246.5 14.2 243 11.5
2004-01-05 08:08:14 51°12.943 2°50.279 247.1 14.1 243 11.5
2004-01-05 08:08:20 51°12.933 2°50.245 246 14.2 243 11.6
2004-01-05 08:08:25 51°12.923 2°50.218 246.7 14.1 243 11.5
2004-01-05 08:08:30 51°12.915 2°50.19 246.2 14.1 243 11.6
2004-01-05 08:08:34 51°12.907 2°50.168 246.3 14.1 242 11.5
2004-01-05 08:08:38 51°12.9 2°50.146 246.3 14.1 243 11.7
2004-01-05 08:08:42 51°12.893 2°50.123 247 14.1 243 11.6
2004-01-05 08:08:50 51°12.879 2°50.079 246 14.1 243 11.6
2004-01-05 08:08:55 51°12.869 2°50.052 246.8 14.1 242 11.6
2004-01-05 08:08:59 51°12.862 2°50.029 246 14.1 242 11.7
2004-01-05 08:09:04 51°12.853 2°50.001 246.1 14.1 242 11.7
2004-01-05 08:09:10 51°12.842 2°49.968 246.7 14.1 243 11.7
2004-01-05 08:09:14 51°12.835 2°49.946 245.9 14.1 242 11.6
2004-01-05 08:09:18 51°12.828 2°49.924 246.2 14.1 243 11.7
2004-01-05 08:09:22 51°12.821 2°49.902 246.7 14.1 243 11.7
2004-01-05 08:09:30 51°12.806 2°49.857 245.9 14.1 242 11.7
2004-01-05 08:09:35 51°12.798 2°49.83 246.1 14.1 243 11.8
2004-01-05 08:09:38 51°12.792 2°49.813 246.7 14.1 243 11.8
2004-01-05 08:09:44 51°12.781 2°49.78 245.9 14.1 243 11.7
2004-01-05 08:09:49 51°12.772 2°49.752 246.7 14.1 242 11.8
2004-01-05 08:09:54 51°12.763 2°49.725 245.9 14.1 242 11.8
2004-01-05 08:09:58 51°12.756 2°49.704 246 14 242 11.8
2004-01-05 08:10:04 51°12.744 2°49.67 245.4 14.1 242 11.8
2004-01-05 08:10:10 51°12.733 2°49.638 246.6 14 242 11.9
2004-01-05 08:10:14 51°12.726 2°49.616 246.3 14 243 11.9
2004-01-05 08:10:19 51°12.717 2°49.588 245.7 14 242 11.9
2004-01-05 08:10:24 51°12.708 2°49.56 246.3 14.1 242 11.9
2004-01-05 08:10:30 51°12.697 2°49.528 246 14 242 11.9
2004-01-05 08:10:34 51°12.69 2°49.506 245.7 14 243 11.9
2004-01-05 08:10:40 51°12.679 2°49.473 245.8 14 243 11.9
2004-01-05 08:10:45 51°12.67 2°49.446 245.9 14 242 12
2004-01-05 08:10:50 51°12.66 2°49.419 246.1 14 242 11.9
2004-01-05 08:10:54 51°12.654 2°49.396 245.9 14 243 11.9
2004-01-05 08:11:00 51°12.643 2°49.363 246 14 242 12
2004-01-05 08:11:02 51°12.64 2°49.352 246.2 14 243 12.1
2004-01-05 08:11:10 51°12.625 2°49.309 246.2 14 242 12
2004-01-05 08:11:15 51°12.616 2°49.282 246 13.9 243 12.1
2004-01-05 08:11:18 51°12.61 2°49.265 246 14 242 12.1
2004-01-05 08:11:23 51°12.602 2°49.238 246.7 13.9 243 12.1
2004-01-05 08:11:30 51°12.589 2°49.2 245.8 13.9 242 12.1
2004-01-05 08:11:34 51°12.582 2°49.178 245.4 13.9 242 12
2004-01-05 08:11:40 51°12.571 2°49.146 246 14 242 12
2004-01-05 08:11:43 51°12.566 2°49.129 246 13.9 243 12
2004-01-05 08:11:50 51°12.553 2°49.092 245.9 13.9 242 12.1
2004-01-05 08:11:54 51°12.546 2°49.069 246 14 243 12.1
2004-01-05 08:11:59 51°12.537 2°49.042 246.8 14 243 12.1
2004-01-05 08:12:03 51°12.53 2°49.02 246 14 243 12.1
2004-01-05 08:12:10 51°12.518 2°48.982 246.3 14 242 12.2
2004-01-05 08:12:14 51°12.511 2°48.96 247.8 13.9 244 12.2
2004-01-05 08:12:18 51°12.504 2°48.938 247.3 13.9 244 12.2
2004-01-05 08:12:25 51°12.492 2°48.899 249 13.9 245 12.2
2004-01-05 08:12:30 51°12.484 2°48.871 249.1 13.9 245 12.1
2004-01-05 08:12:34 51°12.478 2°48.849 248.7 13.9 245 12.3
2004-01-05 08:12:38 51°12.472 2°48.826 249.6 13.9 246 12.2
2004-01-05 08:12:43 51°12.464 2°48.798 248.9 13.9 246 12.3
2004-01-05 08:12:50 51°12.453 2°48.76 249.8 13.9 246 12.3
2004-01-05 08:12:55 51°12.445 2°48.732 249.2 13.9 246 12.2
2004-01-05 08:13:00 51°12.437 2°48.704 249.6 13.9 246 12.4
2004-01-05 08:13:05 51°12.429 2°48.675 249.6 13.9 246 12.4
2004-01-05 08:13:10 51°12.421 2°48.648 249.8 13.8 246 12.4
2004-01-05 08:13:14 51°12.415 2°48.625 249.4 13.9 246 12.4
2004-01-05 08:13:20 51°12.405 2°48.592 249.9 13.9 246 12.5
2004-01-05 08:13:22 51°12.402 2°48.581 249.6 13.9 246 12.5
2004-01-05 08:13:30 51°12.389 2°48.536 249.5 13.8 245 12.4
2004-01-05 08:13:35 51°12.382 2°48.508 249.3 13.9 246 12.5
2004-01-05 08:13:38 51°12.377 2°48.491 249.9 13.9 246 12.6
2004-01-05 08:13:45 51°12.366 2°48.452 249.5 13.9 246 12.5
2004-01-05 08:13:50 51°12.358 2°48.424 250 13.9 246 12.6
2004-01-05 08:13:55 51°12.35 2°48.396 250.1 13.9 247 12.6
2004-01-05 08:13:59 51°12.344 2°48.374 249.7 13.8 246 12.6
2004-01-05 08:14:05 51°12.335 2°48.34 249.4 13.9 246 12.6
2004-01-05 08:14:10 51°12.326 2°48.312 249.8 13.9 245 12.6
2004-01-05 08:14:15 51°12.319 2°48.284 249 13.9 246 12.6
2004-01-05 08:14:20 51°12.31 2°48.256 250 13.8 246 12.6
2004-01-05 08:14:22 51°12.307 2°48.245 249 13.9 246 12.7
2004-01-05 08:14:30 51°12.295 2°48.201 250.2 13.8 246 12.7
2004-01-05 08:14:34 51°12.288 2°48.179 249.2 13.9 245 12.7
2004-01-05 08:14:40 51°12.279 2°48.145 249.6 13.9 247 12.8
2004-01-05 08:14:45 51°12.271 2°48.117 249.4 13.8 245 12.8
2004-01-05 08:14:50 51°12.263 2°48.089 249 13.9 246 12.8
2004-01-05 08:14:54 51°12.257 2°48.067 249.5 13.8 246 12.8
2004-01-05 08:14:58 51°12.251 2°48.045 249.1 13.8 245 12.9
2004-01-05 08:15:03 51°12.243 2°48.017 249.6 13.9 246 12.9
2004-01-05 08:15:10 51°12.231 2°47.978 249.5 13.9 246 12.9
2004-01-05 08:15:14 51°12.225 2°47.955 249.3 13.9 246 12.8
2004-01-05 08:15:20 51°12.216 2°47.922 249.1 13.9 246 12.9
2004-01-05 08:15:25 51°12.207 2°47.894 249.6 13.8 246 12.9
2004-01-05 08:15:30 51°12.199 2°47.866 249 13.9 245 12.9
2004-01-05 08:15:34 51°12.193 2°47.844 249 13.9 246 13
2004-01-05 08:15:40 51°12.183 2°47.811 250 13.8 246 12.8
2004-01-05 08:15:42 51°12.179 2°47.8 247.5 13.9 245 12.8
2004-01-05 08:15:50 51°12.167 2°47.755 250.4 13.8 246 13
2004-01-05 08:15:54 51°12.161 2°47.733 248.9 13.8 245 13
2004-01-05 08:15:58 51°12.155 2°47.71 249.3 13.8 246 13
2004-01-05 08:16:04 51°12.145 2°47.677 249.1 13.9 245 13
2004-01-05 08:16:10 51°12.136 2°47.643 249.2 13.9 246 13.2
2004-01-05 08:16:14 51°12.129 2°47.621 249.3 13.8 245 13
2004-01-05 08:16:20 51°12.12 2°47.588 248.9 13.8 245 13.1
2004-01-05 08:16:25 51°12.112 2°47.56 249.6 13.9 245 13
2004-01-05 08:16:30 51°12.104 2°47.532 248.9 13.9 245 13.1
2004-01-05 08:16:34 51°12.098 2°47.51 249.6 13.8 246 13.1
2004-01-05 08:16:39 51°12.089 2°47.482 248.9 13.9 245 13.1
2004-01-05 08:16:45 51°12.08 2°47.449 250.2 13.8 247 13.2
2004-01-05 08:16:50 51°12.072 2°47.421 249.4 13.8 246 13.2
2004-01-05 08:16:54 51°12.066 2°47.399 249.6 13.9 246 13.2
2004-01-05 08:16:59 51°12.058 2°47.371 249.6 13.8 246 13.2
2004-01-05 08:17:03 51°12.052 2°47.349 249.2 13.9 246 13.2
2004-01-05 08:17:13 51°12.036 2°47.294 250 13.8 246 13.2
2004-01-05 08:17:18 51°12.029 2°47.265 248.9 13.7 245 13.2
2004-01-05 08:17:23 51°12.02 2°47.238 249.6 13.9 246 13.2
2004-01-05 08:17:28 51°12.013 2°47.21 249.9 13.8 246 13.3
2004-01-05 08:17:33 51°12.004 2°47.182 249.1 13.7 245 13.2
2004-01-05 08:17:38 51°11.997 2°47.154 248.7 13.9 247 13.3
2004-01-05 08:17:43 51°11.989 2°47.127 250.6 13.8 246 13.3
2004-01-05 08:17:47 51°11.983 2°47.104 248.5 13.8 246 13.3
2004-01-05 08:17:51 51°11.977 2°47.082 249.5 13.8 246 13.3
2004-01-05 08:17:57 51°11.967 2°47.048 249.1 13.7 245 13.3
2004-01-05 08:18:03 51°11.958 2°47.015 248.7 13.8 246 13.2
2004-01-05 08:18:06 51°11.953 2°46.998 249.3 13.8 245 13.3
2004-01-05 08:18:13 51°11.941 2°46.959 249 13.7 246 13.3
2004-01-05 08:18:18 51°11.931 2°46.931 249.5 13.8 246 13.3
2004-01-05 08:18:42 51°11.893 2°46.798 249.1 13.8 246 13.3
2004-01-05 08:18:49 51°11.882 2°46.758 248.9 13.9 245 13.3
2004-01-05 08:18:54 51°11.874 2°46.731 250 13.8 247 13.3
2004-01-05 08:18:58 51°11.866 2°46.71 248.4 13.8 245 13.3
2004-01-05 08:19:03 51°11.858 2°46.683 249.9 13.8 247 13.3
2004-01-05 08:19:09 51°11.848 2°46.65 249.1 13.7 245 13.4
2004-01-05 08:19:14 51°11.841 2°46.622 248.7 13.7 246 13.4
2004-01-05 08:19:18 51°11.835 2°46.6 249.2 13.7 246 13.4
2004-01-05 08:19:23 51°11.828 2°46.572 249.4 13.7 246 13.5
2004-01-05 08:19:27 51°11.823 2°46.55 249.5 13.7 246 13.5
2004-01-05 08:19:34 51°11.812 2°46.51 249.6 13.7 246 13.4
2004-01-05 08:19:39 51°11.805 2°46.482 249.6 13.7 246 13.5
2004-01-05 08:19:43 51°11.799 2°46.459 249.6 13.8 246 13.5
2004-01-05 08:19:47 51°11.794 2°46.436 249.6 13.8 246 13.5
2004-01-05 08:19:54 51°11.784 2°46.397 250.1 13.8 247 13.5
2004-01-05 08:19:58 51°11.778 2°46.374 249.6 13.7 246 13.5
2004-01-05 08:20:03 51°11.769 2°46.346 249.6 13.8 246 13.4
2004-01-05 08:20:09 51°11.76 2°46.312 249.1 13.9 246 13.4
2004-01-05 08:20:14 51°11.752 2°46.288 249.9 13.8 247 13.4
2004-01-05 08:20:19 51°11.745 2°46.261 248.6 13.7 245 13.4
2004-01-05 08:20:23 51°11.739 2°46.238 249 13.8 246 13.3
2004-01-05 08:20:26 51°11.734 2°46.221 249.2 13.8 246 13.4
2004-01-05 08:20:34 51°11.721 2°46.176 249.5 13.8 246 13.5
2004-01-05 08:20:39 51°11.714 2°46.148 249.6 13.8 246 13.5
2004-01-05 08:20:42 51°11.709 2°46.131 249.6 13.7 246 13.4
2004-01-05 08:20:49 51°11.698 2°46.091 249.2 13.8 247 13.4
2004-01-05 08:20:54 51°11.689 2°46.065 249.6 13.8 246 13.4
2004-01-05 08:20:58 51°11.682 2°46.044 249.1 13.7 246 13.4
2004-01-05 08:21:03 51°11.672 2°46.017 248.4 13.8 245 13.4
2004-01-05 08:21:09 51°11.662 2°45.984 249.3 13.8 246 13.4
2004-01-05 08:21:13 51°11.656 2°45.962 248.2 13.8 245 13.4
2004-01-05 08:21:18 51°11.649 2°45.933 249.2 13.8 246 13.4
2004-01-05 08:21:23 51°11.643 2°45.904 249.6 13.8 246 13.4
2004-01-05 08:21:28 51°11.635 2°45.876 249.7 13.7 247 13.4
2004-01-05 08:21:31 51°11.631 2°45.86 249.2 13.7 246 13.3
2004-01-05 08:21:38 51°11.62 2°45.821 249 13.8 245 13.3
2004-01-05 08:21:43 51°11.613 2°45.793 249 13.7 246 13.3
2004-01-05 08:21:49 51°11.603 2°45.761 249.3 13.7 246 13.4
2004-01-05 08:21:52 51°11.598 2°45.744 248.9 13.7 246 13.3
2004-01-05 08:21:58 51°11.589 2°45.711 249.2 13.8 246 13.3
2004-01-05 08:22:03 51°11.581 2°45.684 250.4 13.7 247 13.3
2004-01-05 08:22:06 51°11.576 2°45.667 250.5 13.7 248 13.3
2004-01-05 08:22:14 51°11.564 2°45.623 251.3 13.7 249 13.3
2004-01-05 08:22:18 51°11.558 2°45.601 252.5 13.7 249 13.3
2004-01-05 08:22:23 51°11.552 2°45.572 252.5 13.7 249 13.4
2004-01-05 08:22:26 51°11.549 2°45.555 253.2 13.7 250 13.3
2004-01-05 08:22:31 51°11.542 2°45.526 253.2 13.8 250 13.3
2004-01-05 08:22:39 51°11.532 2°45.481 253.1 13.7 249 13.4
2004-01-05 08:22:46 51°11.522 2°45.442 252.9 13.7 249 13.3
2004-01-05 08:22:51 51°11.515 2°45.413 252.5 13.8 249 13.3
2004-01-05 08:22:55 51°11.51 2°45.39 253.3 13.8 250 13.3
2004-01-05 08:23:01 51°11.502 2°45.357 253.5 13.7 250 13.3
2004-01-05 08:23:05 51°11.497 2°45.334 253.2 13.7 250 13.3
2004-01-05 08:23:09 51°11.492 2°45.311 253.8 13.8 251 13.3
2004-01-05 08:23:15 51°11.484 2°45.276 254.4 13.8 251 13.3
2004-01-05 08:23:18 51°11.48 2°45.259 254.6 13.7 251 13.4
2004-01-05 08:23:26 51°11.469 2°45.214 253.3 13.7 250 13.3
2004-01-05 08:23:31 51°11.464 2°45.185 253.5 13.8 250 13.3
2004-01-05 08:23:35 51°11.458 2°45.163 254 13.7 250 13.3
2004-01-05 08:23:41 51°11.449 2°45.129 252.2 13.7 248 13.3
2004-01-05 08:23:45 51°11.444 2°45.107 250.4 13.7 247 13.4
2004-01-05 08:23:50 51°11.436 2°45.079 249.6 13.7 246 13.3
2004-01-05 08:23:55 51°11.428 2°45.051 249.6 13.7 246 13.3
2004-01-05 08:24:01 51°11.418 2°45.019 249.4 13.7 246 13.3
2004-01-05 08:24:06 51°11.41 2°44.991 249 13.8 246 13.3
2004-01-05 08:24:11 51°11.402 2°44.964 249.6 13.7 246 13.3
2004-01-05 08:24:15 51°11.397 2°44.941 249.5 13.8 246 13.3
2004-01-05 08:24:20 51°11.389 2°44.913 250.5 13.7 246 13.3
2004-01-05 08:24:26 51°11.381 2°44.88 249.6 13.7 247 13.3
2004-01-05 08:24:30 51°11.374 2°44.858 250.1 13.7 246 13.3
2004-01-05 08:24:35 51°11.367 2°44.829 250 13.8 247 13.3
2004-01-05 08:24:39 51°11.361 2°44.807 250.1 13.7 246 13.3
2004-01-05 08:24:46 51°11.351 2°44.768 249.6 13.7 247 13.3
2004-01-05 08:24:51 51°11.342 2°44.741 250.1 13.8 246 13.3
2004-01-05 08:24:55 51°11.337 2°44.719 250.4 13.7 247 13.3
2004-01-05 08:25:01 51°11.327 2°44.686 250.3 13.7 247 13.3
2004-01-05 08:25:05 51°11.322 2°44.663 250.6 13.7 248 13.2
2004-01-05 08:25:11 51°11.313 2°44.63 250.5 13.8 247 13.3
2004-01-05 08:25:14 51°11.309 2°44.613 250.7 13.7 248 13.3
2004-01-05 08:25:21 51°11.298 2°44.574 250.3 13.6 246 13.3
2004-01-05 08:25:26 51°11.29 2°44.547 249.8 13.6 247 13.2
2004-01-05 08:25:30 51°11.284 2°44.524 249.8 13.7 247 13.2
2004-01-05 08:25:35 51°11.277 2°44.496 250.8 13.8 247 13.3
2004-01-05 08:25:38 51°11.272 2°44.48 250.6 13.7 247 13.3
2004-01-05 08:25:46 51°11.26 2°44.436 250.4 13.6 247 13.2
2004-01-05 08:25:51 51°11.253 2°44.408 249.8 13.7 247 13.2
2004-01-05 08:25:55 51°11.247 2°44.385 250.3 13.7 247 13.2
2004-01-05 08:26:01 51°11.239 2°44.351 251.1 13.7 248 13.2
2004-01-05 08:26:06 51°11.232 2°44.324 250.6 13.6 247 13.2
2004-01-05 08:26:10 51°11.226 2°44.301 250.5 13.6 248 13.2
2004-01-05 08:26:15 51°11.219 2°44.273 250.4 13.7 247 13.2
2004-01-05 08:26:18 51°11.215 2°44.256 251.5 13.7 248 13.2
2004-01-05 08:26:26 51°11.203 2°44.212 251 13.7 247 13.2
2004-01-05 08:26:31 51°11.195 2°44.185 250.6 13.6 247 13.2
2004-01-05 08:26:36 51°11.188 2°44.157 249.9 13.6 247 13.2
2004-01-05 08:26:39 51°11.184 2°44.14 250.7 13.7 247 13.1
2004-01-05 08:26:46 51°11.173 2°44.101 251 13.7 248 13.1
2004-01-05 08:26:50 51°11.167 2°44.079 251.1 13.6 248 13.2
2004-01-05 08:26:55 51°11.16 2°44.052 251.1 13.5 248 13.1
2004-01-05 08:27:01 51°11.152 2°44.018 250.4 13.6 248 13.1
2004-01-05 08:27:06 51°11.144 2°43.99 251.1 13.7 248 13.1
2004-01-05 08:27:11 51°11.138 2°43.962 251 13.7 248 13.2
2004-01-05 08:27:15 51°11.132 2°43.94 251 13.6 247 13.2
2004-01-05 08:27:20 51°11.124 2°43.913 250.4 13.5 247 13.2
2004-01-05 08:27:26 51°11.116 2°43.88 251 13.5 248 13.1
2004-01-05 08:27:30 51°11.11 2°43.857 251.3 13.7 248 13.1
2004-01-05 08:27:36 51°11.103 2°43.823 252.7 13.7 250 13.2
2004-01-05 08:27:41 51°11.096 2°43.796 254 13.5 249 13.1
2004-01-05 08:27:46 51°11.091 2°43.767 253.2 13.4 251 13.2
2004-01-05 08:27:51 51°11.083 2°43.74 253.7 13.5 249 13.1
2004-01-05 08:27:55 51°11.079 2°43.716 253.9 13.6 251 13.1
2004-01-05 08:27:58 51°11.075 2°43.7 254.5 13.6 251 13.2
2004-01-05 08:28:06 51°11.066 2°43.655 254.5 13.5 251 13.3
2004-01-05 08:28:11 51°11.06 2°43.627 254.4 13.4 251 13.2
2004-01-05 08:28:15 51°11.055 2°43.604 254.5 13.5 251 13.2
2004-01-05 08:28:21 51°11.048 2°43.569 255.1 13.6 251 13.2
2004-01-05 08:28:26 51°11.042 2°43.541 255 13.5 252 13.2
2004-01-05 08:28:30 51°11.037 2°43.519 255 13.4 251 13.2
2004-01-05 08:28:35 51°11.031 2°43.491 253.9 13.4 250 13.1
2004-01-05 08:28:41 51°11.024 2°43.457 254 13.5 251 13.1
2004-01-05 08:28:46 51°11.018 2°43.429 254 13.5 250 13.2
2004-01-05 08:28:50 51°11.013 2°43.406 254.4 13.5 251 13.2
2004-01-05 08:28:55 51°11.007 2°43.379 254 13.4 251 13.1
2004-01-05 08:29:01 51°11 2°43.345 253.8 13.4 251 13.2
2004-01-05 08:29:06 51°10.994 2°43.317 254.4 13.4 251 13.1
2004-01-05 08:29:11 51°10.987 2°43.289 253.5 13.5 250 13.2
2004-01-05 08:29:22 51°10.974 2°43.228 253.7 13.4 251 13.2
2004-01-05 08:29:26 51°10.969 2°43.206 254 13.4 250 13.2
2004-01-05 08:29:31 51°10.963 2°43.177 253.9 13.4 251 13.2
2004-01-05 08:29:33 51°10.961 2°43.166 254.4 13.5 251 13.2
2004-01-05 08:29:42 51°10.95 2°43.116 254.3 13.4 251 13.3
2004-01-05 08:29:46 51°10.945 2°43.094 254.4 13.3 251 13.2
2004-01-05 08:29:50 51°10.94 2°43.071 253.6 13.3 250 13.2
2004-01-05 08:29:55 51°10.935 2°43.043 254.1 13.4 251 13.2
2004-01-05 08:30:02 51°10.926 2°43.004 254.5 13.4 251 13.2
2004-01-05 08:30:07 51°10.92 2°42.976 254.1 13.4 251 13.2
2004-01-05 08:30:12 51°10.914 2°42.949 254.5 13.3 251 13.2
2004-01-05 08:30:17 51°10.908 2°42.921 254.1 13.3 251 13.2
2004-01-05 08:30:22 51°10.902 2°42.893 253.4 13.5 250 13.2
2004-01-05 08:30:26 51°10.897 2°42.87 254 13.5 251 13.2
2004-01-05 08:30:42 51°10.878 2°42.782 254 13.3 250 13.1
2004-01-05 08:30:49 51°10.869 2°42.742 253.5 13.5 250 13.2
2004-01-05 08:30:53 51°10.864 2°42.72 253.6 13.5 250 13.2
2004-01-05 08:30:58 51°10.858 2°42.692 254.4 13.4 251 13.2
2004-01-05 08:31:03 51°10.853 2°42.665 254.2 13.3 251 13.2
2004-01-05 08:31:08 51°10.847 2°42.637 254.3 13.3 251 13.1
2004-01-05 08:31:14 51°10.841 2°42.603 254.2 13.4 251 13.1
2004-01-05 08:31:19 51°10.835 2°42.576 254.5 13.4 251 13.2
2004-01-05 08:31:23 51°10.831 2°42.554 254.2 13.4 251 13.2
2004-01-05 08:31:27 51°10.826 2°42.531 254 13.3 251 13.1
2004-01-05 08:31:34 51°10.818 2°42.492 254.1 13.3 251 13.2
2004-01-05 08:31:39 51°10.812 2°42.465 254.7 13.4 251 13.1
2004-01-05 08:31:43 51°10.808 2°42.443 254.2 13.4 251 13.1
2004-01-05 08:31:46 51°10.804 2°42.426 254.6 13.4 251 13.2
2004-01-05 08:31:54 51°10.794 2°42.382 254.7 13.3 251 13.2
2004-01-05 08:32:02 51°10.784 2°42.337 254.5 13.4 251 13.2
2004-01-05 08:32:09 51°10.776 2°42.298 255.3 13.4 252 13.2
2004-01-05 08:32:14 51°10.77 2°42.27 255 13.4 252 13.2
2004-01-05 08:32:18 51°10.765 2°42.248 254.7 13.3 251 13.2
2004-01-05 08:32:23 51°10.759 2°42.22 254.6 13.3 251 13.1
2004-01-05 08:32:29 51°10.752 2°42.186 254.6 13.4 251 13.3
2004-01-05 08:32:34 51°10.746 2°42.158 255.2 13.4 252 13.2
2004-01-05 08:32:39 51°10.74 2°42.129 254.6 13.3 251 13.2
2004-01-05 08:32:42 51°10.735 2°42.113 254.2 13.4 251 13.3
2004-01-05 08:32:46 51°10.731 2°42.09 254.5 13.4 251 13.2
2004-01-05 08:32:54 51°10.721 2°42.045 254.6 13.3 251 13.2
2004-01-05 08:32:58 51°10.716 2°42.023 254.5 13.4 252 13.2
2004-01-05 08:33:02 51°10.712 2°42.001 254.8 13.3 251 13.3
2004-01-05 08:33:07 51°10.705 2°41.973 254.4 13.3 251 13.3
2004-01-05 08:33:11 51°10.701 2°41.951 254.4 13.4 251 13.2
2004-01-05 08:33:19 51°10.692 2°41.906 254.6 13.3 252 13.2
2004-01-05 08:33:23 51°10.687 2°41.884 254.2 13.4 251 13.2
2004-01-05 08:33:27 51°10.683 2°41.862 254.3 13.4 252 13.3
2004-01-05 08:33:34 51°10.674 2°41.823 254.9 13.4 252 13.3
2004-01-05 08:33:39 51°10.668 2°41.795 254 13.4 251 13.3
2004-01-05 08:33:43 51°10.663 2°41.772 254 13.4 251 13.3
2004-01-05 08:33:49 51°10.656 2°41.739 254.9 13.4 252 13.3
2004-01-05 08:33:52 51°10.653 2°41.722 254.4 13.3 251 13.3
2004-01-05 08:33:58 51°10.645 2°41.688 254.3 13.4 251 13.3
2004-01-05 08:34:02 51°10.641 2°41.666 254.7 13.4 252 13.3
2004-01-05 08:34:09 51°10.633 2°41.627 255.2 13.3 252 13.4
2004-01-05 08:34:14 51°10.627 2°41.599 254.6 13.3 251 13.3
2004-01-05 08:34:18 51°10.622 2°41.577 254.1 13.4 251 13.3
2004-01-05 08:34:23 51°10.616 2°41.548 254.9 13.4 252 13.3
2004-01-05 08:34:28 51°10.61 2°41.521 254.7 13.4 251 13.3
2004-01-05 08:34:34 51°10.603 2°41.487 254.2 13.3 251 13.4
2004-01-05 08:34:39 51°10.597 2°41.46 254.6 13.3 251 13.3
2004-01-05 08:34:43 51°10.593 2°41.437 254.9 13.3 252 13.4
2004-01-05 08:34:47 51°10.588 2°41.415 254.8 13.2 251 13.3
2004-01-05 08:34:54 51°10.579 2°41.375 254 13.3 251 13.3
2004-01-05 08:34:58 51°10.574 2°41.353 254.7 13.4 251 13.3
2004-01-05 08:35:03 51°10.568 2°41.325 254.6 13.3 251 13.4
2004-01-05 08:35:06 51°10.564 2°41.309 253.5 13.2 250 13.3
2004-01-05 08:35:14 51°10.555 2°41.265 253.3 13.3 251 13.4
2004-01-05 08:35:18 51°10.55 2°41.242 254 13.4 251 13.3
2004-01-05 08:35:23 51°10.544 2°41.215 254.4 13.3 251 13.4
2004-01-05 08:35:29 51°10.537 2°41.181 254 13.3 251 13.4
2004-01-05 08:35:34 51°10.531 2°41.154 253.9 13.3 251 13.4
2004-01-05 08:35:39 51°10.525 2°41.126 253.7 13.2 251 13.4
2004-01-05 08:35:43 51°10.52 2°41.104 253.9 13.3 251 13.4
2004-01-05 08:35:49 51°10.513 2°41.07 254.6 13.3 251 13.4
2004-01-05 08:35:54 51°10.507 2°41.042 254.2 13.3 252 13.5
2004-01-05 08:35:59 51°10.5 2°41.014 254.4 13.3 251 13.5
2004-01-05 08:36:04 51°10.495 2°40.986 254.4 13.3 252 13.5
2004-01-05 08:36:09 51°10.489 2°40.958 255.2 13.3 252 13.5
2004-01-05 08:36:14 51°10.482 2°40.93 254 13.3 251 13.5
2004-01-05 08:36:19 51°10.476 2°40.902 253.9 13.3 251 13.5
2004-01-05 08:36:22 51°10.472 2°40.886 254.2 13.3 251 13.4
2004-01-05 08:36:29 51°10.464 2°40.847 253.3 13.2 251 13.5
2004-01-05 08:36:34 51°10.457 2°40.82 254.1 13.2 251 13.5
2004-01-05 08:36:38 51°10.453 2°40.797 253.4 13.3 251 13.5
2004-01-05 08:36:43 51°10.447 2°40.77 254.6 13.3 252 13.6
2004-01-05 08:36:49 51°10.44 2°40.737 253.7 13.2 251 13.6
2004-01-05 08:36:53 51°10.436 2°40.715 253.6 13.2 251 13.6
2004-01-05 08:36:59 51°10.428 2°40.682 253.5 13.2 250 13.6
2004-01-05 08:37:02 51°10.425 2°40.665 254 13.2 251 13.6
2004-01-05 08:37:09 51°10.416 2°40.626 253.5 13.3 251 13.6
2004-01-05 08:37:14 51°10.41 2°40.599 254.5 13.3 252 13.7
2004-01-05 08:37:18 51°10.406 2°40.576 254 13.3 251 13.7
2004-01-05 08:37:23 51°10.4 2°40.549 254.1 13.2 251 13.7
2004-01-05 08:37:28 51°10.393 2°40.521 254.6 13.2 251 13.7
2004-01-05 08:37:34 51°10.386 2°40.487 254.2 13.3 252 13.7
2004-01-05 08:37:39 51°10.38 2°40.46 254.6 13.3 252 13.7
2004-01-05 08:37:42 51°10.377 2°40.443 254.2 13.3 252 13.7
2004-01-05 08:37:49 51°10.368 2°40.403 254.7 13.3 252 13.8
2004-01-05 08:37:54 51°10.362 2°40.373 254.2 13.2 252 13.8
2004-01-05 08:37:59 51°10.356 2°40.345 254.7 13.3 252 13.8
2004-01-05 08:38:03 51°10.351 2°40.323 254.6 13.3 252 13.8
2004-01-05 08:38:07 51°10.347 2°40.301 254.8 13.3 252 13.8
2004-01-05 08:38:14 51°10.338 2°40.262 253.7 13.3 251 13.8
2004-01-05 08:38:18 51°10.335 2°40.242 254.7 13.2 252 13.9
2004-01-05 08:38:23 51°10.329 2°40.215 253.7 13.2 251 13.9
2004-01-05 08:38:29 51°10.323 2°40.182 254.4 13.2 252 13.9
2004-01-05 08:38:34 51°10.317 2°40.154 254.5 13.3 251 14
2004-01-05 08:38:39 51°10.311 2°40.127 254.2 13.3 251 14
2004-01-05 08:38:43 51°10.306 2°40.104 254.1 13.2 251 14
2004-01-05 08:38:46 51°10.302 2°40.087 254 13.2 251 14.1
2004-01-05 08:38:54 51°10.292 2°40.042 254.4 13.3 252 14.1
2004-01-05 08:38:58 51°10.287 2°40.019 254.7 13.3 252 14.1
2004-01-05 08:39:03 51°10.281 2°39.991 254.6 13.3 252 14.1
2004-01-05 08:39:07 51°10.277 2°39.969 254.9 13.3 252 14.2
2004-01-05 08:39:14 51°10.269 2°39.931 254.4 13.2 252 14.2
2004-01-05 08:39:22 51°10.26 2°39.886 254.3 13.3 252 14.3
2004-01-05 08:39:29 51°10.251 2°39.847 254.6 13.3 252 14.4
2004-01-05 08:39:33 51°10.247 2°39.825 254.6 13.3 252 14.5
2004-01-05 08:39:38 51°10.241 2°39.797 254.6 13.3 252 14.5
2004-01-05 08:39:42 51°10.238 2°39.775 254.4 13.3 252 14.5
2004-01-05 08:39:49 51°10.23 2°39.737 254.4 13.3 251 14.5
2004-01-05 08:39:54 51°10.225 2°39.709 254.3 13.3 252 14.6
2004-01-05 08:39:58 51°10.22 2°39.687 254.5 13.3 252 14.7
2004-01-05 08:40:03 51°10.214 2°39.658 254.3 13.3 252 14.6
2004-01-05 08:40:07 51°10.209 2°39.636 254.9 13.2 252 14.6
2004-01-05 08:40:14 51°10.201 2°39.597 254.2 13.2 252 14.7
2004-01-05 08:40:19 51°10.196 2°39.57 254.9 13.3 252 14.8
2004-01-05 08:40:23 51°10.192 2°39.548 255 13.3 252 14.8
2004-01-05 08:40:26 51°10.188 2°39.531 254.4 13.2 252 14.9
2004-01-05 08:40:34 51°10.179 2°39.486 254.3 13.3 252 14.9
2004-01-05 08:40:39 51°10.173 2°39.458 254.7 13.3 252 15
2004-01-05 08:40:42 51°10.169 2°39.441 254.2 13.2 252 15
2004-01-05 08:40:49 51°10.161 2°39.402 254.1 13.3 252 15.2
2004-01-05 08:40:54 51°10.154 2°39.375 254.7 13.3 252 15.3
2004-01-05 08:40:58 51°10.15 2°39.352 253.9 13.2 251 15.2
2004-01-05 08:41:02 51°10.145 2°39.33 254.3 13.3 252 15.2
2004-01-05 08:41:09 51°10.136 2°39.291 253.9 13.3 251 15.3
2004-01-05 08:41:14 51°10.13 2°39.263 253.7 13.3 251 15.3
2004-01-05 08:41:18 51°10.126 2°39.241 254.6 13.2 252 15.5
2004-01-05 08:41:23 51°10.12 2°39.214 254 13.2 251 15.5
2004-01-05 08:41:29 51°10.113 2°39.18 254 13.3 252 15.4
2004-01-05 08:41:33 51°10.109 2°39.158 254.6 13.3 252 15.4
2004-01-05 08:41:38 51°10.103 2°39.13 254.5 13.2 252 15.5
2004-01-05 08:41:43 51°10.097 2°39.103 254 13.3 251 15.6
2004-01-05 08:41:47 51°10.093 2°39.08 255.1 13.2 252 15.6
2004-01-05 08:41:53 51°10.086 2°39.047 253.6 13.2 251 15.5
2004-01-05 08:41:58 51°10.081 2°39.019 254.7 13.3 253 15.6
2004-01-05 08:42:03 51°10.075 2°38.992 254.9 13.2 252 15.7
2004-01-05 08:42:06 51°10.072 2°38.975 254.3 13.2 252 15.7
2004-01-05 08:42:12 51°10.065 2°38.943 254.7 13.2 251 15.8
2004-01-05 08:42:19 51°10.057 2°38.903 254.1 13.3 252 15.8
2004-01-05 08:42:23 51°10.052 2°38.881 254.7 13.3 252 15.9
2004-01-05 08:42:29 51°10.045 2°38.848 254.4 13.3 252 15.9
2004-01-05 08:42:34 51°10.04 2°38.82 254.4 13.3 252 16
2004-01-05 08:42:39 51°10.034 2°38.792 254.1 13.2 251 16
2004-01-05 08:42:42 51°10.03 2°38.776 254.1 13.3 252 16.1
2004-01-05 08:42:47 51°10.025 2°38.748 254.5 13.3 252 16.1
2004-01-05 08:42:54 51°10.017 2°38.709 254.5 13.2 252 16.1
2004-01-05 08:42:59 51°10.011 2°38.682 254.1 13.2 252 16.3
2004-01-05 08:43:04 51°10.005 2°38.654 254.6 13.2 252 16.2
2004-01-05 08:43:09 51°9.999 2°38.626 253.9 13.3 252 16.2
2004-01-05 08:43:14 51°9.994 2°38.598 254.5 13.3 252 16.3
2004-01-05 08:43:18 51°9.99 2°38.576 254.7 13.2 252 16.4
2004-01-05 08:43:24 51°9.983 2°38.543 254 13.2 252 16.5
2004-01-05 08:43:29 51°9.977 2°38.515 255 13.2 252 16.4
2004-01-05 08:43:34 51°9.972 2°38.487 254 13.2 251 16.5
2004-01-05 08:43:38 51°9.967 2°38.465 254.8 13.3 252 16.6
2004-01-05 08:43:43 51°9.961 2°38.438 254.4 13.2 252 16.5
2004-01-05 08:43:48 51°9.956 2°38.41 253.7 13.2 251 16.5
2004-01-05 08:43:54 51°9.949 2°38.377 254.2 13.2 252 16.6
2004-01-05 08:43:58 51°9.944 2°38.355 254.4 13.2 252 16.7
2004-01-05 08:44:02 51°9.94 2°38.333 254 13.2 252 16.7
2004-01-05 08:44:09 51°9.932 2°38.294 254.5 13.3 252 16.7
2004-01-05 08:44:13 51°9.928 2°38.271 254.6 13.2 252 16.8
2004-01-05 08:44:18 51°9.921 2°38.244 253.9 13.1 251 16.9
2004-01-05 08:44:23 51°9.916 2°38.216 254 13.3 252 16.9
2004-01-05 08:44:28 51°9.911 2°38.189 255.4 13.3 252 17
2004-01-05 08:44:34 51°9.904 2°38.156 253.8 13.2 252 17.1
2004-01-05 08:44:39 51°9.898 2°38.128 254 13.2 252 17
2004-01-05 08:44:43 51°9.893 2°38.106 254.3 13.3 252 17.3
2004-01-05 08:44:49 51°9.887 2°38.072 254.5 13.2 252 17.3
2004-01-05 08:44:52 51°9.883 2°38.056 254.1 13.2 252 17.2
2004-01-05 08:44:58 51°9.877 2°38.022 254.6 13.3 253 17.2
2004-01-05 08:45:02 51°9.872 2°38.001 254.9 13.2 252 17.4
2004-01-05 08:45:08 51°9.865 2°37.967 254.4 13.2 252 17.5
2004-01-05 08:45:14 51°9.859 2°37.934 253.6 13.3 252 17.7
2004-01-05 08:45:35 51°9.836 2°37.818 255.1 13.1 253 17.4
2004-01-05 08:45:42 51°9.827 2°37.78 253.4 13 251 17.2
2004-01-05 08:45:46 51°9.824 2°37.758 253.8 13.1 253 17.6
2004-01-05 08:45:51 51°9.817 2°37.731 254.2 13.1 252 17.7
2004-01-05 08:45:57 51°9.811 2°37.698 254 13.1 253 17.9
2004-01-05 08:46:02 51°9.805 2°37.67 253.7 13.1 252 17.9
2004-01-05 08:46:06 51°9.802 2°37.648 254.4 13.1 253 17.9
2004-01-05 08:46:11 51°9.795 2°37.621 254.2 13.1 252 18
2004-01-05 08:46:15 51°9.792 2°37.599 254 13.1 252 17.9
2004-01-05 08:46:22 51°9.783 2°37.56 254 13.2 252 17.9
2004-01-05 08:46:26 51°9.779 2°37.538 254 13.1 252 18
2004-01-05 08:46:31 51°9.774 2°37.511 254.3 13 252 17.9
2004-01-05 08:46:35 51°9.769 2°37.489 253.8 13.1 252 17.9
2004-01-05 08:46:42 51°9.762 2°37.45 254 13.2 253 17.9
2004-01-05 08:46:46 51°9.758 2°37.428 254.9 13.1 253 17.9
2004-01-05 08:46:51 51°9.752 2°37.401 254.7 13 253 18
2004-01-05 08:46:56 51°9.747 2°37.373 254.3 13 253 17.9
2004-01-05 08:47:02 51°9.74 2°37.34 254.1 13.1 252 17.9
2004-01-05 08:47:06 51°9.736 2°37.318 254 13.1 252 17.9
2004-01-05 08:47:12 51°9.729 2°37.285 254 13 252 17.9
2004-01-05 08:47:17 51°9.724 2°37.258 253.9 13 252 17.8
2004-01-05 08:47:22 51°9.718 2°37.23 253.7 13 252 17.8
2004-01-05 08:47:27 51°9.713 2°37.203 253.5 13.1 252 17.9
2004-01-05 08:47:32 51°9.707 2°37.176 253.8 13 252 17.9
2004-01-05 08:47:37 51°9.701 2°37.148 253.3 13.1 252 17.8
2004-01-05 08:47:42 51°9.696 2°37.121 253.8 13 252 17.8
2004-01-05 08:47:47 51°9.69 2°37.094 253.6 13 252 17.8
2004-01-05 08:47:51 51°9.686 2°37.071 253.4 13.1 252 17.8
2004-01-05 08:47:57 51°9.679 2°37.039 254 13 252 17.7
2004-01-05 08:48:02 51°9.674 2°37.012 254 13 253 17.7
2004-01-05 08:48:07 51°9.668 2°36.984 254 13 252 17.6
2004-01-05 08:48:11 51°9.664 2°36.962 253.7 13.1 252 17.7
2004-01-05 08:48:17 51°9.657 2°36.93 253.9 13 252 17.7
2004-01-05 08:48:22 51°9.651 2°36.903 253.3 13 252 17.6
2004-01-05 08:48:26 51°9.647 2°36.881 254 13 252 17.3
2004-01-05 08:48:32 51°9.64 2°36.848 253.5 13 252 17.5
2004-01-05 08:48:35 51°9.637 2°36.831 253.9 13.1 253 17.7
2004-01-05 08:48:42 51°9.63 2°36.793 254.5 13 253 17.6
2004-01-05 08:48:46 51°9.626 2°36.771 254.2 13 253 17.5
2004-01-05 08:48:52 51°9.619 2°36.738 254.2 13 252 17.5
2004-01-05 08:48:57 51°9.613 2°36.711 253.9 13 253 17.7
2004-01-05 08:49:02 51°9.608 2°36.684 254 13 252 17.8
2004-01-05 08:49:14 51°9.595 2°36.617 254.4 13.1 253 17.6
2004-01-05 08:49:21 51°9.588 2°36.579 254 13.1 253 17.6
2004-01-05 08:49:26 51°9.582 2°36.551 254.7 13.1 252 17.7
2004-01-05 08:49:31 51°9.578 2°36.523 254.5 13 253 17.6
2004-01-05 08:49:35 51°9.573 2°36.502 255.1 13 253 17.8
2004-01-05 08:49:41 51°9.567 2°36.468 254.3 13.1 253 18.2
2004-01-05 08:49:46 51°9.561 2°36.441 254.7 13.1 253 18.2
2004-01-05 08:49:50 51°9.558 2°36.419 254.4 13 253 17.9
2004-01-05 08:49:55 51°9.552 2°36.391 255 13 253 17.7
2004-01-05 08:50:00 51°9.547 2°36.364 254.4 13.1 253 18
2004-01-05 08:50:06 51°9.541 2°36.331 255 13 253 18.2
2004-01-05 08:50:11 51°9.536 2°36.303 254.4 13 253 18.2
2004-01-05 08:50:14 51°9.533 2°36.287 254.6 13.1 253 17.8
2004-01-05 08:50:19 51°9.527 2°36.259 254.7 13.1 253 18.2
2004-01-05 08:50:26 51°9.52 2°36.221 254.9 13 254 17.7
2004-01-05 08:50:30 51°9.516 2°36.199 254.7 13 253 18.2
2004-01-05 08:50:35 51°9.511 2°36.171 254.7 13 253 18.3
2004-01-05 08:50:41 51°9.504 2°36.139 254.7 13 253 18
2004-01-05 08:50:46 51°9.499 2°36.111 254.4 13 253 18
2004-01-05 08:50:50 51°9.495 2°36.089 253.9 13 252 18.1
2004-01-05 08:50:54 51°9.491 2°36.067 254.1 13.1 253 18
2004-01-05 08:50:58 51°9.486 2°36.045 254.7 13 253 17.8
2004-01-05 08:51:06 51°9.478 2°36.003 254.7 12.8 253 17.7
2004-01-05 08:51:10 51°9.475 2°35.982 254.9 12.5 253 18.4
2004-01-05 08:51:14 51°9.471 2°35.962 254.7 12.2 253 18
2004-01-05 08:51:35 51°9.448 2°35.865 248.9 10.9 247 18.1
2004-01-05 08:51:42 51°9.439 2°35.836 246.4 10.5 244 18.4
2004-01-05 08:51:46 51°9.434 2°35.822 245 10 242 18.1
2004-01-05 08:51:51 51°9.427 2°35.804 242.2 9.6 240 18
2004-01-05 08:51:55 51°9.422 2°35.791 240 9.1 238 18.3
2004-01-05 08:52:02 51°9.412 2°35.769 237.9 8.9 235 18.4
2004-01-05 08:52:06 51°9.407 2°35.756 236 8.8 235 17.9
2004-01-05 08:52:11 51°9.399 2°35.741 236.4 8.6 234 17.9
2004-01-05 08:52:16 51°9.393 2°35.725 238 8.5 237 18.3
2004-01-05 08:52:22 51°9.387 2°35.705 242.7 8.4 241 18.5
2004-01-05 08:52:26 51°9.384 2°35.691 246.8 8.3 245 18.4
2004-01-05 08:52:31 51°9.381 2°35.674 252.5 8.2 250 18.3
2004-01-05 08:52:34 51°9.379 2°35.664 255.4 8.2 254 18.4
2004-01-05 08:52:42 51°9.375 2°35.636 256.7 8.1 256 18.1
2004-01-05 08:52:47 51°9.373 2°35.62 257.2 7.8 256 18.4
2004-01-05 08:52:51 51°9.371 2°35.608 257.2 7.5 257 18.5
2004-01-05 08:52:57 51°9.368 2°35.591 257.1 6.9 257 18.5
2004-01-05 08:53:02 51°9.366 2°35.578 256.3 6.4 256 18.3
2004-01-05 08:53:07 51°9.364 2°35.566 255.4 6.1 255 18.4
2004-01-05 08:53:11 51°9.362 2°35.557 253.5 5.7 253 18.4
2004-01-05 08:53:17 51°9.36 2°35.545 251.4 5.5 253 18.6
2004-01-05 08:53:22 51°9.357 2°35.535 249.1 4.9 249 18.8
2004-01-05 08:53:27 51°9.355 2°35.526 247.7 4.6 248 18.7
2004-01-05 08:53:32 51°9.353 2°35.518 246 4.4 246 18.4
2004-01-05 08:53:37 51°9.351 2°35.51 245.2 4.1 246 18.8
2004-01-05 08:53:42 51°9.348 2°35.502 244.3 3.8 244 18.2
2004-01-05 08:53:47 51°9.346 2°35.496 243.5 3.6 244 19
2004-01-05 08:53:50 51°9.345 2°35.493 243.1 3.3 243 18.4
2004-01-05 08:53:57 51°9.343 2°35.486 242.2 2.7 244 18.9
2004-01-05 08:54:02 51°9.342 2°35.482 243.1 2.1 244 18.8
2004-01-05 08:54:07 51°9.342 2°35.479 246 1.8 252 18.2
2004-01-05 08:54:11 51°9.341 2°35.477 250.9 1.5 254 18.5
2004-01-05 08:54:14 51°9.341 2°35.475 254.6 1.1 269 18.7
2004-01-05 08:54:22 51°9.342 2°35.472 259.1 0.9 281 18.8
2004-01-05 08:54:27 51°9.342 2°35.471 264.1 0.9 288 18.9
2004-01-05 08:54:31 51°9.342 2°35.469 268.7 0.9 298 18.9
2004-01-05 08:54:37 51°9.343 2°35.467 271.4 0.9 303 19
2004-01-05 08:54:42 51°9.344 2°35.465 274.6 0.9 304 19.1
2004-01-05 08:54:46 51°9.345 2°35.464 277.2 0.9 309 18.7
2004-01-05 08:54:52 51°9.346 2°35.463 279.6 1 314 18.4
2004-01-05 08:54:57 51°9.348 2°35.461 281.7 1.1 322 18.3
2004-01-05 08:55:33 51°9.358 2°35.449 290.5 1.4 326 18.6
2004-01-05 08:55:38 51°9.36 2°35.448 291.4 1.4 328 18.5
2004-01-05 08:55:42 51°9.361 2°35.446 291.7 1.4 328 18.5
2004-01-05 08:55:47 51°9.363 2°35.445 291.4 1.4 328 18.9
2004-01-05 08:55:53 51°9.365 2°35.443 291.4 1.4 327 19.2
2004-01-05 08:55:58 51°9.367 2°35.441 291.6 1.4 327 18.8
2004-01-05 08:56:03 51°9.368 2°35.439 291 1.5 327 18.6
2004-01-05 08:56:07 51°9.37 2°35.438 290.9 1.5 328 18.4
2004-01-05 08:56:12 51°9.371 2°35.436 290.7 1.5 326 18.5
2004-01-05 08:56:18 51°9.373 2°35.434 290.6 1.5 327 18.7
2004-01-05 08:56:22 51°9.375 2°35.432 290.4 1.5 326 18.9
2004-01-05 08:56:27 51°9.377 2°35.431 290.3 1.5 326 18.9
2004-01-05 08:56:32 51°9.378 2°35.429 290.2 1.5 326 18.9
2004-01-05 08:56:38 51°9.381 2°35.427 290 1.5 328 19
2004-01-05 08:56:42 51°9.382 2°35.425 289.9 1.5 327 19
2004-01-05 08:56:48 51°9.384 2°35.423 290 1.5 329 19.1
2004-01-05 08:56:53 51°9.386 2°35.421 289.9 1.4 326 19.2
2004-01-05 08:57:11 51°9.392 2°35.416 290.3 1.5 329 19.4
2004-01-05 08:57:18 51°9.395 2°35.414 290.7 1.4 329 19.4
2004-01-05 08:57:23 51°9.396 2°35.412 290.8 1.5 329 19.5
2004-01-05 08:57:26 51°9.397 2°35.411 290.9 1.5 331 19.4
2004-01-05 08:57:30 51°9.399 2°35.409 291.2 1.5 331 19.4
2004-01-05 08:57:38 51°9.402 2°35.407 291 1.4 331 19.5
2004-01-05 08:57:42 51°9.403 2°35.406 291.5 1.5 331 19.5
2004-01-05 08:57:46 51°9.404 2°35.405 291.6 1.4 331 19.5
2004-01-05 08:57:51 51°9.406 2°35.403 291.7 1.4 330 19.5
2004-01-05 08:57:58 51°9.408 2°35.401 291.6 1.4 330 19.2
2004-01-05 08:58:03 51°9.41 2°35.4 291.8 1.4 331 19
2004-01-05 08:58:07 51°9.411 2°35.398 291.8 1.4 331 18.9
2004-01-05 08:58:12 51°9.413 2°35.397 291.8 1.4 332 18.7
2004-01-05 08:58:18 51°9.415 2°35.395 291.8 1.4 331 18.6
2004-01-05 08:58:23 51°9.417 2°35.394 291.8 1.5 333 18.6
2004-01-05 08:58:27 51°9.418 2°35.393 292.1 1.4 332 18.6
2004-01-05 08:58:32 51°9.42 2°35.391 292.2 1.5 334 18.6
2004-01-05 08:58:38 51°9.422 2°35.389 292.4 1.4 332 18.6
2004-01-05 08:58:43 51°9.424 2°35.388 292.4 1.4 333 18.7
2004-01-05 08:58:47 51°9.425 2°35.387 292.5 1.4 334 18.8
2004-01-05 08:58:53 51°9.428 2°35.385 292.6 1.4 334 18.8
2004-01-05 08:58:58 51°9.429 2°35.384 292.5 1.4 334 18.8
2004-01-05 08:59:03 51°9.431 2°35.383 293 1.4 334 18.8
2004-01-05 08:59:07 51°9.432 2°35.382 293.4 1.4 334 18.8
2004-01-05 08:59:12 51°9.434 2°35.381 293.5 1.4 336 18.9
2004-01-05 08:59:18 51°9.436 2°35.379 293.9 1.4 336 18.9
2004-01-05 08:59:23 51°9.438 2°35.378 294.8 1.4 337 19
2004-01-05 08:59:28 51°9.44 2°35.376 295.2 1.4 337 19
2004-01-05 08:59:31 51°9.441 2°35.376 295.9 1.4 338 19
2004-01-05 08:59:38 51°9.444 2°35.374 296.6 1.5 339 19.1
2004-01-05 08:59:43 51°9.446 2°35.373 297.1 1.4 338 19.2
2004-01-05 08:59:47 51°9.447 2°35.372 297.8 1.5 340 19.2
2004-01-05 08:59:53 51°9.45 2°35.371 298.8 1.5 340 19.2
2004-01-05 08:59:58 51°9.452 2°35.37 299.2 1.5 341 19.2
2004-01-05 09:00:03 51°9.454 2°35.369 299.9 1.5 342 19.2
2004-01-05 09:00:07 51°9.455 2°35.368 300.9 1.5 341 19.2
2004-01-05 09:00:13 51°9.458 2°35.367 301.6 1.5 342 19.5
2004-01-05 09:00:18 51°9.46 2°35.366 302.2 1.5 342 19.6
2004-01-05 09:00:22 51°9.462 2°35.365 303 1.6 343 19.6
2004-01-05 09:00:27 51°9.464 2°35.364 303.6 1.6 343 19.6
2004-01-05 09:00:33 51°9.466 2°35.363 304 1.6 344 19.2
2004-01-05 09:00:38 51°9.469 2°35.362 304.4 1.7 346 19.1
2004-01-05 09:00:42 51°9.47 2°35.361 304.6 1.6 342 19.2
2004-01-05 09:00:47 51°9.472 2°35.36 304.9 1.6 344 19.1
2004-01-05 09:00:53 51°9.475 2°35.359 305.1 1.6 343 19.2
2004-01-05 09:00:58 51°9.477 2°35.358 304.8 1.6 345 19.3
2004-01-05 09:01:03 51°9.48 2°35.357 305.2 1.6 343 19.6
2004-01-05 09:01:06 51°9.481 2°35.356 305.2 1.7 345 19.5
2004-01-05 09:01:13 51°9.484 2°35.355 305.7 1.7 345 19.3
2004-01-05 09:01:18 51°9.486 2°35.354 306 1.6 345 19.2
2004-01-05 09:01:22 51°9.488 2°35.353 306 1.7 345 19.1
2004-01-05 09:01:27 51°9.49 2°35.352 306.2 1.7 345 19.2
2004-01-05 09:01:33 51°9.493 2°35.351 306.2 1.7 345 19.6
2004-01-05 09:01:38 51°9.495 2°35.35 306.4 1.7 345 19.8
2004-01-05 09:01:43 51°9.498 2°35.349 306.5 1.7 346 19.7
2004-01-05 09:01:47 51°9.5 2°35.349 306.7 1.7 346 19.7
2004-01-05 09:01:52 51°9.502 2°35.348 307 1.7 346 19.8
2004-01-05 09:01:58 51°9.505 2°35.347 307.2 1.7 347 19.8
2004-01-05 09:02:03 51°9.507 2°35.346 307.3 1.7 347 19.8
2004-01-05 09:02:06 51°9.508 2°35.346 307.6 1.6 346 19.8
2004-01-05 09:02:11 51°9.511 2°35.345 307.7 1.7 347 20
2004-01-05 09:02:18 51°9.514 2°35.344 307.8 1.6 346 20
2004-01-05 09:02:22 51°9.516 2°35.343 307.9 1.7 347 20
2004-01-05 09:02:27 51°9.518 2°35.343 307.8 1.7 348 20
2004-01-05 09:02:32 51°9.52 2°35.342 307.8 1.7 347 20.2
2004-01-05 09:02:38 51°9.523 2°35.341 307.7 1.7 347 20.2
2004-01-05 09:02:43 51°9.525 2°35.34 307.8 1.7 349 20.2
2004-01-05 09:02:48 51°9.527 2°35.34 308 1.7 348 20.1
2004-01-05 09:02:53 51°9.53 2°35.339 307.9 1.7 349 20.2
2004-01-05 09:02:58 51°9.532 2°35.338 308.2 1.7 349 20.3
2004-01-05 09:03:03 51°9.534 2°35.337 308.4 1.7 349 20.4
2004-01-05 09:03:08 51°9.537 2°35.337 308.5 1.7 349 20.4
2004-01-05 09:03:13 51°9.539 2°35.336 308.4 1.7 348 20.5
2004-01-05 09:03:18 51°9.541 2°35.335 308.8 1.7 349 20.4
2004-01-05 09:03:23 51°9.543 2°35.334 309.1 1.7 348 20.4
2004-01-05 09:03:28 51°9.545 2°35.333 309.1 1.7 349 20.4
2004-01-05 09:03:33 51°9.548 2°35.332 309.3 1.7 350 20.4
2004-01-05 09:03:38 51°9.55 2°35.332 309.3 1.7 350 20.4
2004-01-05 09:03:43 51°9.552 2°35.331 309.3 1.7 348 20.4
2004-01-05 09:03:47 51°9.554 2°35.33 309.1 1.7 349 20.5
2004-01-05 09:03:51 51°9.556 2°35.33 308.9 1.7 348 20.5
2004-01-05 09:03:58 51°9.56 2°35.329 309.1 1.7 349 20.4
2004-01-05 09:04:03 51°9.562 2°35.328 308.9 1.7 350 20.4
2004-01-05 09:04:07 51°9.564 2°35.328 308.9 1.7 350 20.5
2004-01-05 09:04:11 51°9.566 2°35.327 309 1.7 351 20.5
2004-01-05 09:04:18 51°9.569 2°35.326 309.1 1.7 351 20.5
2004-01-05 09:04:23 51°9.571 2°35.325 309.1 1.7 350 20.4
2004-01-05 09:04:27 51°9.573 2°35.325 309.1 1.7 350 20.3
2004-01-05 09:04:33 51°9.576 2°35.324 309.1 1.7 348 20.3
2004-01-05 09:04:38 51°9.578 2°35.323 308.8 1.7 349 20.4
2004-01-05 09:04:42 51°9.58 2°35.323 309 1.7 349 20.4
2004-01-05 09:04:47 51°9.583 2°35.322 308.8 1.7 351 20.4
2004-01-05 09:04:53 51°9.585 2°35.322 308.7 1.7 349 20.4
2004-01-05 09:04:58 51°9.588 2°35.321 308.6 1.7 350 20.5
2004-01-05 09:05:02 51°9.589 2°35.32 308.7 1.7 351 20.5
2004-01-05 09:05:06 51°9.591 2°35.32 308.7 1.7 349 20.5
2004-01-05 09:05:13 51°9.595 2°35.319 308.8 1.7 351 20.5
2004-01-05 09:05:18 51°9.597 2°35.318 308.8 1.7 351 20.5
2004-01-05 09:05:23 51°9.599 2°35.318 308.6 1.7 352 20.5
2004-01-05 09:05:27 51°9.601 2°35.317 308.8 1.7 349 20.5
2004-01-05 09:05:33 51°9.604 2°35.316 308.4 1.7 350 20.6
2004-01-05 09:05:38 51°9.606 2°35.316 308.7 1.7 351 20.6
2004-01-05 09:05:42 51°9.608 2°35.315 308.9 1.6 349 20.7
2004-01-05 09:05:47 51°9.61 2°35.314 309 1.6 349 20.7
2004-01-05 09:05:53 51°9.613 2°35.314 309.2 1.7 351 20.7
2004-01-05 09:05:58 51°9.615 2°35.313 309.2 1.7 351 20.7